createdAt,value
2019-06-26T04:32:55.407Z,81.50
2019-06-26T04:35:24.620Z,81.50
2019-06-26T04:37:54.135Z,80.60
2019-06-26T04:40:23.377Z,79.50
2019-06-26T04:42:52.762Z,77.90
2019-06-26T04:45:22.130Z,76.80
2019-06-26T04:47:51.526Z,75.60
2019-06-26T04:50:21.067Z,74.50
2019-06-26T04:52:50.289Z,75.40
2019-06-26T04:55:19.571Z,73.50
2019-06-26T04:57:48.784Z,70.90
2019-06-26T05:00:21.643Z,69.60
2019-06-26T05:02:49.189Z,68.00
2019-06-26T05:05:18.546Z,66.40
2019-06-26T05:07:47.774Z,65.20
2019-06-26T05:10:17.268Z,64.00
2019-06-26T05:12:46.540Z,63.70
2019-06-26T05:15:15.867Z,62.30
2019-06-26T05:17:45.174Z,61.00
2019-06-26T05:20:14.773Z,60.10
2019-06-26T05:22:43.973Z,59.30
2019-06-26T05:25:13.675Z,58.50
2019-06-26T05:27:42.883Z,58.50
2019-06-26T05:30:12.696Z,58.30
2019-06-26T05:32:41.922Z,58.60
2019-06-26T05:35:11.646Z,57.40
2019-06-26T05:37:40.862Z,57.00
2019-06-26T05:40:11.855Z,56.70
2019-06-26T05:42:41.074Z,56.60
2019-06-26T05:45:11.116Z,56.10
2019-06-26T05:47:40.384Z,55.60
2019-06-26T05:50:10.494Z,55.30
2019-06-26T05:52:42.668Z,55.20
2019-06-26T05:55:11.967Z,54.20
2019-06-26T05:57:42.154Z,53.80
2019-06-26T06:00:12.074Z,53.40
2019-06-26T06:02:41.405Z,53.20
2019-06-26T06:05:11.571Z,53.00
2019-06-26T06:07:40.785Z,53.50
2019-06-26T06:10:10.717Z,54.00
2019-06-26T06:12:39.898Z,54.40
2019-06-26T06:15:09.774Z,54.90
2019-06-26T06:17:39.019Z,55.40
2019-06-26T06:20:08.904Z,56.00
2019-06-26T06:22:38.192Z,55.90
2019-06-26T06:25:07.949Z,55.60
2019-06-26T06:27:37.302Z,55.40
2019-06-26T06:30:06.923Z,55.10
2019-06-26T06:32:36.114Z,55.00
2019-06-26T06:35:06.672Z,54.90
2019-06-26T06:37:35.937Z,54.60
2019-06-26T06:40:06.788Z,54.10
2019-06-26T06:42:35.979Z,53.90
2019-06-26T06:45:06.857Z,53.70
2019-06-26T06:47:36.053Z,53.90
2019-06-26T06:50:05.702Z,54.20
2019-06-26T06:52:35.039Z,54.10
2019-06-26T06:55:08.075Z,54.50
2019-06-26T06:57:37.338Z,55.30
2019-06-26T07:00:07.333Z,56.50
2019-06-26T07:02:36.644Z,58.40
2019-06-26T07:05:07.535Z,60.30
2019-06-26T07:07:36.948Z,62.70
2019-06-26T07:10:06.580Z,66.20
2019-06-26T07:15:08.999Z,68.80
2019-06-26T07:17:38.194Z,70.40
2019-06-26T07:20:08.044Z,71.40
2019-06-26T07:22:37.410Z,72.80
2019-06-26T07:25:07.845Z,73.40
